Denver, Colorado
Traffic Map
Current Weather Conditions
Denver, Colorado
Clear
Clear
15°
Feels Like: 15°
Wind Chill: 15° Ceiling: Unl
Heat Index: 15° Visibility: 10mi
Dew Point: 12° Wind: 0mph
Humidity: 82% Direction: ° ()
Pressure: 30.02in Gusts: 0mph
Raw Report DataKBJC 271212Z AUTO 00000KT 10SM CLR 15/12 A3002 RMK AO2
Traffic Incident Summary
Active as of:
Severity:
Category:
InformationThere was an issue retrieving the traffic information for this location. Please try a different location or try again shortly.
Advertisements
Track Severe Weather on mobile